Terminal Aerodrome Forecast
Issued by NWS Sioux Falls, SD

Home | Current Version | Previous Version | Graphics & Text | Print | Product List | Glossary Off
Versions: 1 2 3 4 5 6 7 8 9 10 11 12 13 14 15 16

121
FTUS43 KFSD 301448 AAA
TAFHON
TAF AMD
KHON 301448Z 3015/0112 32015G23KT 6SM -SN OVC015
     FM302000 32016G24KT P6SM VCSH OVC015
     FM302300 31014KT P6SM OVC015
     FM011100 31009KT P6SM OVC015=

USA.gov is the U.S. government's official web portal to all federal, state and local government web resources and services.